sensor_id;sensor_type;location;lat;lon;timestamp;pressure;altitude;pressure_sealevel;temperature;humidity
40708;BME280;26392;42.696;23.350;2022-10-31T00:02:02;95766.19;;;14.53;57.31
40708;BME280;26392;42.696;23.350;2022-10-31T00:04:27;95766.50;;;14.57;57.01
40708;BME280;26392;42.696;23.350;2022-10-31T00:06:53;95763.75;;;14.57;57.15
40708;BME280;26392;42.696;23.350;2022-10-31T00:09:18;95778.53;;;14.55;57.27
40708;BME280;26392;42.696;23.350;2022-10-31T00:11:43;95759.28;;;14.50;57.55
40708;BME280;26392;42.696;23.350;2022-10-31T00:14:09;95761.19;;;14.45;57.87
40708;BME280;26392;42.696;23.350;2022-10-31T00:16:34;95761.47;;;14.43;57.90
40708;BME280;26392;42.696;23.350;2022-10-31T00:19:02;95764.47;;;14.42;58.39
40708;BME280;26392;42.696;23.350;2022-10-31T00:21:29;95769.06;;;14.31;58.68
40708;BME280;26392;42.696;23.350;2022-10-31T00:23:54;95762.78;;;14.30;58.71
40708;BME280;26392;42.696;23.350;2022-10-31T00:26:20;95763.59;;;14.31;58.82
40708;BME280;26392;42.696;23.350;2022-10-31T00:28:46;95760.59;;;14.32;58.99
40708;BME280;26392;42.696;23.350;2022-10-31T00:31:12;95760.56;;;14.27;59.29
40708;BME280;26392;42.696;23.350;2022-10-31T00:33:39;95760.84;;;14.26;59.83
40708;BME280;26392;42.696;23.350;2022-10-31T00:36:06;95756.47;;;14.30;59.41
40708;BME280;26392;42.696;23.350;2022-10-31T00:38:31;95764.66;;;14.25;60.02
40708;BME280;26392;42.696;23.350;2022-10-31T00:40:57;95749.91;;;14.26;59.70
40708;BME280;26392;42.696;23.350;2022-10-31T00:43:22;95764.38;;;14.21;60.29
40708;BME280;26392;42.696;23.350;2022-10-31T00:45:47;95763.78;;;14.14;60.55
40708;BME280;26392;42.696;23.350;2022-10-31T00:48:13;95758.59;;;14.13;60.66
40708;BME280;26392;42.696;23.350;2022-10-31T00:50:39;95763.19;;;14.02;60.96
40708;BME280;26392;42.696;23.350;2022-10-31T00:53:04;95766.41;;;13.88;61.63
40708;BME280;26392;42.696;23.350;2022-10-31T00:55:30;95763.38;;;13.85;61.83
40708;BME280;26392;42.696;23.350;2022-10-31T00:57:56;95763.41;;;13.90;61.98
40708;BME280;26392;42.696;23.350;2022-10-31T01:00:21;95759.56;;;13.91;62.02
40708;BME280;26392;42.696;23.350;2022-10-31T01:02:47;95763.72;;;13.99;61.95
40708;BME280;26392;42.696;23.350;2022-10-31T01:05:12;95764.84;;;14.03;62.03
40708;BME280;26392;42.696;23.350;2022-10-31T01:07:39;95762.47;;;13.74;62.85
40708;BME280;26392;42.696;23.350;2022-10-31T01:10:06;95766.53;;;13.61;63.62
40708;BME280;26392;42.696;23.350;2022-10-31T01:12:43;95769.56;;;13.65;63.72
40708;BME280;26392;42.696;23.350;2022-10-31T01:15:10;95773.84;;;13.51;64.18
40708;BME280;26392;42.696;23.350;2022-10-31T01:17:36;95765.81;;;13.39;65.02
40708;BME280;26392;42.696;23.350;2022-10-31T01:20:03;95776.00;;;13.16;65.29
40708;BME280;26392;42.696;23.350;2022-10-31T01:22:28;95764.72;;;13.13;65.55
40708;BME280;26392;42.696;23.350;2022-10-31T01:24:54;95773.63;;;12.98;66.29
40708;BME280;26392;42.696;23.350;2022-10-31T01:27:19;95778.63;;;13.06;66.70
40708;BME280;26392;42.696;23.350;2022-10-31T01:29:44;95778.72;;;13.16;65.78
40708;BME280;26392;42.696;23.350;2022-10-31T01:32:10;95783.88;;;13.13;65.65
40708;BME280;26392;42.696;23.350;2022-10-31T01:34:35;95788.34;;;12.92;65.91
40708;BME280;26392;42.696;23.350;2022-10-31T01:37:00;95785.44;;;12.76;66.56
40708;BME280;26392;42.696;23.350;2022-10-31T01:39:26;95787.78;;;12.68;67.01
40708;BME280;26392;42.696;23.350;2022-10-31T01:41:52;95775.09;;;12.57;67.58
40708;BME280;26392;42.696;23.350;2022-10-31T01:46:52;95788.16;;;12.49;68.21
40708;BME280;26392;42.696;23.350;2022-10-31T01:49:24;95794.69;;;12.48;68.60
40708;BME280;26392;42.696;23.350;2022-10-31T01:51:55;95787.06;;;12.50;68.87
40708;BME280;26392;42.696;23.350;2022-10-31T01:54:24;95791.41;;;12.46;69.12
40708;BME280;26392;42.696;23.350;2022-10-31T01:56:53;95790.63;;;12.51;68.84
40708;BME280;26392;42.696;23.350;2022-10-31T01:59:21;95786.84;;;12.57;69.30
40708;BME280;26392;42.696;23.350;2022-10-31T02:01:48;95786.91;;;12.62;69.58
40708;BME280;26392;42.696;23.350;2022-10-31T02:04:15;95776.56;;;12.64;68.98
40708;BME280;26392;42.696;23.350;2022-10-31T02:06:46;95775.28;;;12.72;68.82
40708;BME280;26392;42.696;23.350;2022-10-31T02:09:14;95774.78;;;12.75;69.24
40708;BME280;26392;42.696;23.350;2022-10-31T02:11:41;95773.09;;;12.74;69.16
40708;BME280;26392;42.696;23.350;2022-10-31T02:14:07;95780.22;;;12.75;69.35
40708;BME280;26392;42.696;23.350;2022-10-31T02:16:32;95776.03;;;12.67;68.66
40708;BME280;26392;42.696;23.350;2022-10-31T02:18:58;95783.13;;;12.63;69.11
40708;BME280;26392;42.696;23.350;2022-10-31T02:21:40;95774.41;;;12.66;69.16
40708;BME280;26392;42.696;23.350;2022-10-31T02:35:28;95800.97;;;12.49;70.37
40708;BME280;26392;42.696;23.350;2022-10-31T02:46:55;95813.75;;;12.43;71.04
40708;BME280;26392;42.696;23.350;2022-10-31T02:49:37;95807.47;;;12.43;70.79
40708;BME280;26392;42.696;23.350;2022-10-31T02:52:34;95826.59;;;12.43;71.15
40708;BME280;26392;42.696;23.350;2022-10-31T02:54:58;95816.16;;;12.40;71.16
40708;BME280;26392;42.696;23.350;2022-10-31T02:57:34;95810.97;;;12.38;71.72
40708;BME280;26392;42.696;23.350;2022-10-31T03:00:05;95820.69;;;12.29;72.01
40708;BME280;26392;42.696;23.350;2022-10-31T03:05:13;95822.06;;;12.31;72.08
40708;BME280;26392;42.696;23.350;2022-10-31T03:11:00;95820.75;;;12.34;71.91
40708;BME280;26392;42.696;23.350;2022-10-31T03:19:18;95825.13;;;12.13;72.99
40708;BME280;26392;42.696;23.350;2022-10-31T03:21:49;95828.03;;;12.06;73.64
40708;BME280;26392;42.696;23.350;2022-10-31T03:24:18;95831.88;;;11.89;74.26
40708;BME280;26392;42.696;23.350;2022-10-31T03:26:48;95828.72;;;11.80;74.48
40708;BME280;26392;42.696;23.350;2022-10-31T03:29:17;95833.09;;;11.64;75.10
40708;BME280;26392;42.696;23.350;2022-10-31T03:32:02;95834.94;;;11.58;75.76
40708;BME280;26392;42.696;23.350;2022-10-31T03:34:30;95829.66;;;11.52;76.40
40708;BME280;26392;42.696;23.350;2022-10-31T03:36:59;95836.34;;;11.61;76.10
40708;BME280;26392;42.696;23.350;2022-10-31T03:39:27;95835.91;;;11.69;76.12
40708;BME280;26392;42.696;23.350;2022-10-31T03:42:46;95842.53;;;11.73;75.91
40708;BME280;26392;42.696;23.350;2022-10-31T03:44:48;95837.25;;;11.67;76.09
40708;BME280;26392;42.696;23.350;2022-10-31T03:47:16;95849.47;;;11.64;76.16
40708;BME280;26392;42.696;23.350;2022-10-31T03:49:42;95853.44;;;11.56;76.53
40708;BME280;26392;42.696;23.350;2022-10-31T03:52:28;95848.25;;;11.55;76.74
40708;BME280;26392;42.696;23.350;2022-10-31T03:57:37;95849.25;;;11.49;76.89
40708;BME280;26392;42.696;23.350;2022-10-31T04:00:13;95852.22;;;11.47;76.97
40708;BME280;26392;42.696;23.350;2022-10-31T04:02:42;95856.03;;;11.46;77.02
40708;BME280;26392;42.696;23.350;2022-10-31T04:05:11;95863.72;;;11.49;77.03
40708;BME280;26392;42.696;23.350;2022-10-31T04:07:42;95861.56;;;11.51;77.10
40708;BME280;26392;42.696;23.350;2022-10-31T04:10:13;95859.41;;;11.53;77.24
40708;BME280;26392;42.696;23.350;2022-10-31T04:12:40;95860.09;;;11.60;76.87
40708;BME280;26392;42.696;23.350;2022-10-31T04:15:08;95863.22;;;11.69;76.96
40708;BME280;26392;42.696;23.350;2022-10-31T04:17:38;95861.97;;;11.77;76.63
40708;BME280;26392;42.696;23.350;2022-10-31T04:20:04;95868.69;;;11.86;76.26
40708;BME280;26392;42.696;23.350;2022-10-31T04:22:30;95870.59;;;11.85;76.17
40708;BME280;26392;42.696;23.350;2022-10-31T04:24:55;95860.59;;;11.91;75.89
40708;BME280;26392;42.696;23.350;2022-10-31T04:27:21;95863.91;;;11.93;75.61
40708;BME280;26392;42.696;23.350;2022-10-31T04:29:46;95866.38;;;11.95;75.61
40708;BME280;26392;42.696;23.350;2022-10-31T04:32:11;95863.63;;;11.95;75.71
40708;BME280;26392;42.696;23.350;2022-10-31T04:34:37;95863.06;;;11.93;75.78
40708;BME280;26392;42.696;23.350;2022-10-31T04:37:02;95864.38;;;11.90;75.82
40708;BME280;26392;42.696;23.350;2022-10-31T04:39:28;95867.19;;;11.78;76.25
40708;BME280;26392;42.696;23.350;2022-10-31T04:41:53;95872.63;;;11.78;76.50
40708;BME280;26392;42.696;23.350;2022-10-31T04:44:18;95873.13;;;11.75;76.79
40708;BME280;26392;42.696;23.350;2022-10-31T04:46:44;95879.00;;;11.67;77.41
40708;BME280;26392;42.696;23.350;2022-10-31T04:49:09;95878.50;;;11.53;78.35
40708;BME280;26392;42.696;23.350;2022-10-31T04:51:35;95880.91;;;11.50;78.64
40708;BME280;26392;42.696;23.350;2022-10-31T04:54:00;95877.69;;;11.70;78.37
40708;BME280;26392;42.696;23.350;2022-10-31T04:56:26;95880.91;;;11.50;78.63
40708;BME280;26392;42.696;23.350;2022-10-31T04:58:52;95886.38;;;11.50;78.66
40708;BME280;26392;42.696;23.350;2022-10-31T05:01:17;95887.19;;;11.50;78.61
40708;BME280;26392;42.696;23.350;2022-10-31T05:03:42;95885.69;;;11.59;78.75
40708;BME280;26392;42.696;23.350;2022-10-31T05:06:08;95888.91;;;11.56;78.59
40708;BME280;26392;42.696;23.350;2022-10-31T05:08:33;95889.19;;;11.55;78.99
40708;BME280;26392;42.696;23.350;2022-10-31T05:11:00;95888.19;;;11.61;78.34
40708;BME280;26392;42.696;23.350;2022-10-31T05:13:27;95885.78;;;11.48;78.57
40708;BME280;26392;42.696;23.350;2022-10-31T05:15:52;95895.78;;;11.59;78.44
40708;BME280;26392;42.696;23.350;2022-10-31T05:18:18;95902.50;;;11.68;77.96
40708;BME280;26392;42.696;23.350;2022-10-31T05:20:43;95907.69;;;11.53;78.30
40708;BME280;26392;42.696;23.350;2022-10-31T05:23:09;95915.06;;;11.52;78.56
40708;BME280;26392;42.696;23.350;2022-10-31T05:25:34;95910.22;;;11.26;79.94
40708;BME280;26392;42.696;23.350;2022-10-31T05:28:00;95911.56;;;11.23;80.19
40708;BME280;26392;42.696;23.350;2022-10-31T05:30:28;95913.44;;;11.23;80.15
40708;BME280;26392;42.696;23.350;2022-10-31T05:32:54;95919.16;;;11.21;80.30
40708;BME280;26392;42.696;23.350;2022-10-31T05:35:22;95915.06;;;11.07;80.53
40708;BME280;26392;42.696;23.350;2022-10-31T05:37:48;95922.41;;;11.06;80.68
40708;BME280;26392;42.696;23.350;2022-10-31T05:40:18;95922.09;;;10.91;81.53
40708;BME280;26392;42.696;23.350;2022-10-31T05:42:44;95924.19;;;11.01;81.38
40708;BME280;26392;42.696;23.350;2022-10-31T05:45:13;95927.03;;;11.06;81.37
40708;BME280;26392;42.696;23.350;2022-10-31T05:47:38;95923.13;;;11.02;81.27
40708;BME280;26392;42.696;23.350;2022-10-31T05:50:05;95921.41;;;10.95;81.59
40708;BME280;26392;42.696;23.350;2022-10-31T05:52:30;95924.59;;;10.92;81.92
40708;BME280;26392;42.696;23.350;2022-10-31T05:54:56;95919.88;;;11.16;81.26
40708;BME280;26392;42.696;23.350;2022-10-31T05:57:21;95932.78;;;11.21;81.13
40708;BME280;26392;42.696;23.350;2022-10-31T05:59:47;95931.03;;;11.15;81.00
40708;BME280;26392;42.696;23.350;2022-10-31T06:02:12;95933.88;;;11.08;80.99
40708;BME280;26392;42.696;23.350;2022-10-31T06:04:37;95931.81;;;10.98;81.10
40708;BME280;26392;42.696;23.350;2022-10-31T06:07:03;95938.84;;;11.23;80.75
40708;BME280;26392;42.696;23.350;2022-10-31T06:09:28;95947.19;;;11.33;80.16
40708;BME280;26392;42.696;23.350;2022-10-31T06:11:54;95949.34;;;11.48;79.65
40708;BME280;26392;42.696;23.350;2022-10-31T06:14:19;95945.09;;;11.52;79.47
40708;BME280;26392;42.696;23.350;2022-10-31T06:16:45;95947.75;;;11.64;78.74
40708;BME280;26392;42.696;23.350;2022-10-31T06:19:10;95959.66;;;11.75;78.26
40708;BME280;26392;42.696;23.350;2022-10-31T06:21:35;95963.44;;;11.85;77.49
40708;BME280;26392;42.696;23.350;2022-10-31T06:24:01;95969.31;;;11.94;77.05
40708;BME280;26392;42.696;23.350;2022-10-31T06:26:26;95970.56;;;12.03;76.75
40708;BME280;26392;42.696;23.350;2022-10-31T06:28:52;95969.03;;;12.13;76.34
40708;BME280;26392;42.696;23.350;2022-10-31T06:31:17;95972.44;;;12.20;76.19
40708;BME280;26392;42.696;23.350;2022-10-31T06:33:43;95980.97;;;12.40;75.70
40708;BME280;26392;42.696;23.350;2022-10-31T06:36:09;95976.38;;;12.46;75.58
40708;BME280;26392;42.696;23.350;2022-10-31T06:38:35;95977.97;;;12.59;74.85
40708;BME280;26392;42.696;23.350;2022-10-31T06:41:05;95981.22;;;12.77;73.89
40708;BME280;26392;42.696;23.350;2022-10-31T06:43:30;95980.28;;;12.89;73.31
40708;BME280;26392;42.696;23.350;2022-10-31T06:45:56;95984.88;;;13.05;72.74
40708;BME280;26392;42.696;23.350;2022-10-31T06:48:21;95978.50;;;13.21;72.03
40708;BME280;26392;42.696;23.350;2022-10-31T06:50:47;95975.09;;;13.31;71.88
40708;BME280;26392;42.696;23.350;2022-10-31T06:53:12;95980.41;;;13.43;71.62
40708;BME280;26392;42.696;23.350;2022-10-31T06:55:40;95973.91;;;13.49;71.32
40708;BME280;26392;42.696;23.350;2022-10-31T06:58:06;95982.59;;;13.68;69.94
40708;BME280;26392;42.696;23.350;2022-10-31T07:00:31;95989.25;;;13.77;70.15
40708;BME280;26392;42.696;23.350;2022-10-31T07:03:05;95981.84;;;13.73;70.32
40708;BME280;26392;42.696;23.350;2022-10-31T07:05:30;95981.38;;;13.81;69.67
40708;BME280;26392;42.696;23.350;2022-10-31T07:08:06;95971.34;;;13.97;69.88
40708;BME280;26392;42.696;23.350;2022-10-31T07:10:33;95978.34;;;14.09;69.59
40708;BME280;26392;42.696;23.350;2022-10-31T07:13:04;95981.66;;;14.17;69.31
40708;BME280;26392;42.696;23.350;2022-10-31T07:15:33;95981.22;;;14.30;68.78
40708;BME280;26392;42.696;23.350;2022-10-31T07:18:04;95985.13;;;14.39;68.83
40708;BME280;26392;42.696;23.350;2022-10-31T07:20:30;95972.44;;;14.28;68.36
40708;BME280;26392;42.696;23.350;2022-10-31T07:22:56;95963.69;;;14.31;68.51
40708;BME280;26392;42.696;23.350;2022-10-31T07:25:22;95958.03;;;14.48;68.02
40708;BME280;26392;42.696;23.350;2022-10-31T07:27:48;95953.75;;;14.57;68.03
40708;BME280;26392;42.696;23.350;2022-10-31T07:30:14;95959.50;;;14.55;68.25
40708;BME280;26392;42.696;23.350;2022-10-31T07:32:47;95952.94;;;14.62;68.18
40708;BME280;26392;42.696;23.350;2022-10-31T07:35:16;95957.41;;;14.68;67.64
40708;BME280;26392;42.696;23.350;2022-10-31T07:37:42;95957.19;;;14.42;68.07
40708;BME280;26392;42.696;23.350;2022-10-31T07:40:08;95952.22;;;14.34;68.28
40708;BME280;26392;42.696;23.350;2022-10-31T07:42:41;95954.06;;;14.61;68.00
40708;BME280;26392;42.696;23.350;2022-10-31T07:45:08;95956.06;;;14.70;67.82
40708;BME280;26392;42.696;23.350;2022-10-31T07:47:52;95953.38;;;14.86;66.85
40708;BME280;26392;42.696;23.350;2022-10-31T07:50:23;95957.78;;;14.92;67.07
40708;BME280;26392;42.696;23.350;2022-10-31T07:53:07;95955.13;;;15.07;66.93
40708;BME280;26392;42.696;23.350;2022-10-31T07:55:33;95955.47;;;15.21;66.61
40708;BME280;26392;42.696;23.350;2022-10-31T07:58:01;95954.94;;;15.29;66.40
40708;BME280;26392;42.696;23.350;2022-10-31T08:00:26;95954.38;;;15.37;65.88
40708;BME280;26392;42.696;23.350;2022-10-31T08:03:04;95958.22;;;15.31;65.99
40708;BME280;26392;42.696;23.350;2022-10-31T08:05:30;95965.91;;;15.24;66.43
40708;BME280;26392;42.696;23.350;2022-10-31T08:07:57;95966.50;;;15.41;66.54
40708;BME280;26392;42.696;23.350;2022-10-31T08:10:24;95960.78;;;15.58;65.46
40708;BME280;26392;42.696;23.350;2022-10-31T08:13:00;95959.47;;;15.76;65.07
40708;BME280;26392;42.696;23.350;2022-10-31T08:15:27;95957.31;;;15.88;64.70
40708;BME280;26392;42.696;23.350;2022-10-31T08:17:53;95966.09;;;15.96;63.94
40708;BME280;26392;42.696;23.350;2022-10-31T08:20:19;95962.25;;;15.97;63.81
40708;BME280;26392;42.696;23.350;2022-10-31T08:23:03;95958.41;;;16.13;63.55
40708;BME280;26392;42.696;23.350;2022-10-31T08:25:31;95955.66;;;16.18;63.02
40708;BME280;26392;42.696;23.350;2022-10-31T08:27:57;95961.41;;;16.27;62.79
40708;BME280;26392;42.696;23.350;2022-10-31T08:30:24;95954.28;;;16.36;62.54
40708;BME280;26392;42.696;23.350;2022-10-31T08:33:15;95951.25;;;16.43;62.53
40708;BME280;26392;42.696;23.350;2022-10-31T08:35:41;95955.63;;;16.44;62.41
40708;BME280;26392;42.696;23.350;2022-10-31T08:38:08;95947.94;;;16.56;61.86
40708;BME280;26392;42.696;23.350;2022-10-31T08:40:34;95950.38;;;16.58;61.92
40708;BME280;26392;42.696;23.350;2022-10-31T08:43:01;95948.72;;;16.72;61.76
40708;BME280;26392;42.696;23.350;2022-10-31T08:45:28;95953.13;;;16.83;61.66
40708;BME280;26392;42.696;23.350;2022-10-31T08:47:58;95959.72;;;16.97;61.16
40708;BME280;26392;42.696;23.350;2022-10-31T08:50:25;95952.22;;;17.08;60.30
40708;BME280;26392;42.696;23.350;2022-10-31T08:52:51;95946.94;;;17.22;59.92
40708;BME280;26392;42.696;23.350;2022-10-31T08:55:16;95954.34;;;17.27;60.20
40708;BME280;26392;42.696;23.350;2022-10-31T08:57:42;95958.47;;;17.29;60.09
40708;BME280;26392;42.696;23.350;2022-10-31T09:00:07;95942.72;;;17.40;59.80
40708;BME280;26392;42.696;23.350;2022-10-31T09:02:33;95953.16;;;17.48;59.25
40708;BME280;26392;42.696;23.350;2022-10-31T09:04:58;95946.72;;;17.68;59.19
40708;BME280;26392;42.696;23.350;2022-10-31T09:07:24;95945.81;;;17.83;58.35
40708;BME280;26392;42.696;23.350;2022-10-31T09:09:49;95939.09;;;17.99;57.71
40708;BME280;26392;42.696;23.350;2022-10-31T09:12:15;95933.78;;;18.08;57.58
40708;BME280;26392;42.696;23.350;2022-10-31T09:14:40;95937.28;;;18.19;57.30
40708;BME280;26392;42.696;23.350;2022-10-31T09:17:06;95934.50;;;18.24;57.34
40708;BME280;26392;42.696;23.350;2022-10-31T09:19:31;95924.03;;;18.21;57.00
40708;BME280;26392;42.696;23.350;2022-10-31T09:21:56;95938.06;;;18.24;57.22
40708;BME280;26392;42.696;23.350;2022-10-31T09:24:22;95939.38;;;18.32;57.09
40708;BME280;26392;42.696;23.350;2022-10-31T09:26:47;95924.63;;;18.47;56.47
40708;BME280;26392;42.696;23.350;2022-10-31T09:29:12;95928.84;;;18.68;56.06
40708;BME280;26392;42.696;23.350;2022-10-31T09:31:38;95929.03;;;18.77;55.58
40708;BME280;26392;42.696;23.350;2022-10-31T09:34:03;95922.81;;;18.90;55.11
40708;BME280;26392;42.696;23.350;2022-10-31T09:36:29;95934.56;;;19.01;54.77
40708;BME280;26392;42.696;23.350;2022-10-31T09:38:54;95927.34;;;19.05;55.03
40708;BME280;26392;42.696;23.350;2022-10-31T09:41:29;95923.94;;;19.13;54.38
40708;BME280;26392;42.696;23.350;2022-10-31T09:49:36;95918.69;;;19.36;53.25
40708;BME280;26392;42.696;23.350;2022-10-31T09:52:10;95916.63;;;19.47;53.22
40708;BME280;26392;42.696;23.350;2022-10-31T09:54:55;95909.34;;;19.51;51.99
40708;BME280;26392;42.696;23.350;2022-10-31T09:57:24;95907.88;;;19.58;52.16
40708;BME280;26392;42.696;23.350;2022-10-31T09:59:51;95909.56;;;19.54;52.45
40708;BME280;26392;42.696;23.350;2022-10-31T10:02:42;95902.81;;;19.65;52.78
40708;BME280;26392;42.696;23.350;2022-10-31T10:05:13;95908.41;;;19.79;52.53
40708;BME280;26392;42.696;23.350;2022-10-31T10:16:05;95887.69;;;20.15;50.46
40708;BME280;26392;42.696;23.350;2022-10-31T10:23:52;95878.63;;;20.28;49.63
40708;BME280;26392;42.696;23.350;2022-10-31T10:26:46;95878.03;;;20.45;49.23
40708;BME280;26392;42.696;23.350;2022-10-31T10:29:29;95873.06;;;20.61;49.17
40708;BME280;26392;42.696;23.350;2022-10-31T10:32:01;95873.28;;;20.64;48.16
40708;BME280;26392;42.696;23.350;2022-10-31T10:34:35;95868.84;;;20.63;47.73
40708;BME280;26392;42.696;23.350;2022-10-31T10:39:53;95854.72;;;20.78;47.60
40708;BME280;26392;42.696;23.350;2022-10-31T10:42:20;95852.78;;;20.93;47.48
40708;BME280;26392;42.696;23.350;2022-10-31T10:45:14;95845.00;;;20.95;46.97
40708;BME280;26392;42.696;23.350;2022-10-31T10:48:07;95850.00;;;20.93;46.63
40708;BME280;26392;42.696;23.350;2022-10-31T10:50:42;95845.72;;;21.00;46.39
40708;BME280;26392;42.696;23.350;2022-10-31T10:53:27;95841.59;;;21.12;45.90
40708;BME280;26392;42.696;23.350;2022-10-31T10:56:17;95845.06;;;21.17;46.17
40708;BME280;26392;42.696;23.350;2022-10-31T10:58:47;95848.75;;;21.27;45.92
40708;BME280;26392;42.696;23.350;2022-10-31T11:01:14;95842.16;;;21.36;45.80
40708;BME280;26392;42.696;23.350;2022-10-31T11:03:41;95846.06;;;21.35;45.81
40708;BME280;26392;42.696;23.350;2022-10-31T11:06:21;95844.84;;;21.41;45.76
40708;BME280;26392;42.696;23.350;2022-10-31T11:08:50;95827.28;;;21.46;45.58
40708;BME280;26392;42.696;23.350;2022-10-31T11:13:42;95839.66;;;21.62;44.61
40708;BME280;26392;42.696;23.350;2022-10-31T11:16:33;95836.75;;;21.67;44.13
40708;BME280;26392;42.696;23.350;2022-10-31T11:21:37;95815.19;;;21.64;44.19
40708;BME280;26392;42.696;23.350;2022-10-31T11:24:25;95824.03;;;21.66;44.59
40708;BME280;26392;42.696;23.350;2022-10-31T11:27:07;95806.47;;;21.71;43.90
40708;BME280;26392;42.696;23.350;2022-10-31T11:29:35;95809.28;;;21.80;44.30
40708;BME280;26392;42.696;23.350;2022-10-31T11:32:02;95799.78;;;21.95;43.90
40708;BME280;26392;42.696;23.350;2022-10-31T11:37:01;95800.63;;;22.04;43.64
40708;BME280;26392;42.696;23.350;2022-10-31T11:39:28;95798.25;;;22.11;43.05
40708;BME280;26392;42.696;23.350;2022-10-31T11:41:54;95798.75;;;22.13;42.59
40708;BME280;26392;42.696;23.350;2022-10-31T11:44:22;95790.09;;;22.15;42.65
40708;BME280;26392;42.696;23.350;2022-10-31T11:46:51;95791.53;;;22.12;42.43
40708;BME280;26392;42.696;23.350;2022-10-31T11:51:49;95786.41;;;22.19;42.64
40708;BME280;26392;42.696;23.350;2022-10-31T11:54:25;95784.50;;;22.28;42.31
40708;BME280;26392;42.696;23.350;2022-10-31T11:56:52;95774.84;;;22.26;42.26
40708;BME280;26392;42.696;23.350;2022-10-31T11:59:22;95775.72;;;22.35;42.45
40708;BME280;26392;42.696;23.350;2022-10-31T12:01:50;95773.75;;;22.36;42.52
40708;BME280;26392;42.696;23.350;2022-10-31T12:04:17;95766.56;;;22.34;42.01
40708;BME280;26392;42.696;23.350;2022-10-31T12:06:44;95776.75;;;22.48;41.54
40708;BME280;26392;42.696;23.350;2022-10-31T12:09:27;95774.16;;;22.51;41.68
40708;BME280;26392;42.696;23.350;2022-10-31T12:23:38;95758.41;;;22.78;40.83
40708;BME280;26392;42.696;23.350;2022-10-31T12:26:16;95762.00;;;22.78;41.52
40708;BME280;26392;42.696;23.350;2022-10-31T12:33:50;95768.72;;;22.86;41.76
40708;BME280;26392;42.696;23.350;2022-10-31T12:39:02;95766.44;;;22.88;40.84
40708;BME280;26392;42.696;23.350;2022-10-31T12:44:40;95757.63;;;22.86;41.07
40708;BME280;26392;42.696;23.350;2022-10-31T12:48:13;95763.16;;;22.86;41.19
40708;BME280;26392;42.696;23.350;2022-10-31T12:53:00;95762.06;;;22.96;40.93
40708;BME280;26392;42.696;23.350;2022-10-31T12:58:09;95765.28;;;22.89;40.68
40708;BME280;26392;42.696;23.350;2022-10-31T13:00:38;95762.53;;;22.89;40.77
40708;BME280;26392;42.696;23.350;2022-10-31T13:03:32;95764.47;;;22.89;41.24
40708;BME280;26392;42.696;23.350;2022-10-31T13:06:04;95766.91;;;22.90;40.75
40708;BME280;26392;42.696;23.350;2022-10-31T13:08:35;95756.69;;;22.99;40.34
40708;BME280;26392;42.696;23.350;2022-10-31T13:11:24;95757.81;;;22.98;40.55
40708;BME280;26392;42.696;23.350;2022-10-31T13:13:57;95748.97;;;22.96;40.30
40708;BME280;26392;42.696;23.350;2022-10-31T13:16:29;95765.03;;;22.99;40.38
40708;BME280;26392;42.696;23.350;2022-10-31T13:19:09;95759.47;;;22.99;40.41
40708;BME280;26392;42.696;23.350;2022-10-31T13:22:07;95760.91;;;22.88;40.60
40708;BME280;26392;42.696;23.350;2022-10-31T13:24:36;95759.75;;;22.89;40.87
40708;BME280;26392;42.696;23.350;2022-10-31T13:27:17;95760.91;;;22.88;40.34
40708;BME280;26392;42.696;23.350;2022-10-31T13:30:03;95765.47;;;22.93;40.25
40708;BME280;26392;42.696;23.350;2022-10-31T13:32:41;95753.84;;;22.91;40.24
40708;BME280;26392;42.696;23.350;2022-10-31T13:35:30;95758.28;;;22.92;40.71
40708;BME280;26392;42.696;23.350;2022-10-31T13:38:27;95757.00;;;22.98;40.28
40708;BME280;26392;42.696;23.350;2022-10-31T13:41:03;95759.28;;;22.96;40.26
40708;BME280;26392;42.696;23.350;2022-10-31T13:46:23;95755.03;;;22.98;40.34
40708;BME280;26392;42.696;23.350;2022-10-31T13:48:50;95757.47;;;22.91;40.28
40708;BME280;26392;42.696;23.350;2022-10-31T13:51:27;95755.66;;;22.87;40.12
40708;BME280;26392;42.696;23.350;2022-10-31T13:56:27;95755.00;;;22.90;40.02
40708;BME280;26392;42.696;23.350;2022-10-31T14:01:35;95759.59;;;22.94;39.99
40708;BME280;26392;42.696;23.350;2022-10-31T14:04:02;95758.59;;;22.90;40.14
40708;BME280;26392;42.696;23.350;2022-10-31T14:12:23;95761.69;;;22.80;40.69
40708;BME280;26392;42.696;23.350;2022-10-31T14:14:57;95765.72;;;22.74;41.05
40708;BME280;26392;42.696;23.350;2022-10-31T14:17:27;95770.44;;;22.65;41.35
40708;BME280;26392;42.696;23.350;2022-10-31T14:20:22;95771.56;;;22.55;41.63
40708;BME280;26392;42.696;23.350;2022-10-31T14:22:49;95773.72;;;22.67;41.37
40708;BME280;26392;42.696;23.350;2022-10-31T14:25:36;95768.13;;;22.49;41.98
40708;BME280;26392;42.696;23.350;2022-10-31T14:28:18;95765.56;;;22.30;42.22
40708;BME280;26392;42.696;23.350;2022-10-31T14:30:55;95773.25;;;22.33;42.34
40708;BME280;26392;42.696;23.350;2022-10-31T14:33:24;95769.81;;;22.28;42.40
40708;BME280;26392;42.696;23.350;2022-10-31T14:49:38;95771.72;;;21.74;43.62
40708;BME280;26392;42.696;23.350;2022-10-31T14:52:12;95770.53;;;21.66;43.98
40708;BME280;26392;42.696;23.350;2022-10-31T14:54:45;95773.13;;;21.62;43.72
40708;BME280;26392;42.696;23.350;2022-10-31T14:57:26;95766.88;;;21.57;43.76
40708;BME280;26392;42.696;23.350;2022-10-31T15:00:17;95768.44;;;21.49;44.10
40708;BME280;26392;42.696;23.350;2022-10-31T15:05:21;95769.28;;;21.36;44.48
40708;BME280;26392;42.696;23.350;2022-10-31T15:07:52;95778.50;;;21.31;44.74
40708;BME280;26392;42.696;23.350;2022-10-31T15:10:32;95777.94;;;21.20;45.13
40708;BME280;26392;42.696;23.350;2022-10-31T15:13:19;95779.81;;;21.11;45.22